createdAt,value
2019-05-03T00:10:19.401Z,19.48
2019-05-03T00:25:26.069Z,17.30
2019-05-03T00:40:32.979Z,16.10
2019-05-03T00:55:41.882Z,18.60
2019-05-03T01:10:48.503Z,20.00
2019-05-03T01:25:56.123Z,17.73
2019-05-03T01:41:03.052Z,19.52
2019-05-03T01:56:11.722Z,18.57
2019-05-03T02:11:18.190Z,17.20
2019-05-03T02:26:25.405Z,16.23
2019-05-03T02:41:34.119Z,20.50
2019-05-03T02:56:46.023Z,18.37
2019-05-03T03:11:55.862Z,15.28
2019-05-03T03:27:05.801Z,16.95
2019-05-03T03:42:16.322Z,18.90
2019-05-03T03:57:25.662Z,12.98
2019-05-03T04:12:35.053Z,14.93
2019-05-03T04:27:41.899Z,16.57
2019-05-03T04:42:48.810Z,13.65
2019-05-03T04:57:56.238Z,17.37
2019-05-03T05:13:05.386Z,18.92
2019-05-03T05:28:30.184Z,18.45
2019-05-03T05:43:37.407Z,30.55
2019-05-03T05:58:46.002Z,19.62
2019-05-03T06:14:05.053Z,22.25
2019-05-03T06:29:15.024Z,23.95
2019-05-03T06:44:37.324Z,27.55
2019-05-03T06:59:56.508Z,21.42
2019-05-03T07:15:05.140Z,21.73
2019-05-03T07:30:12.753Z,19.10
2019-05-03T07:45:20.691Z,19.90
2019-05-03T08:00:27.588Z,21.15
2019-05-03T08:15:36.139Z,16.93
2019-05-03T08:30:50.593Z,12.95
2019-05-03T08:45:57.047Z,13.98
2019-05-03T09:01:07.409Z,17.90
2019-05-03T09:16:15.329Z,17.62
2019-05-03T09:31:21.858Z,17.50
2019-05-03T09:46:29.671Z,13.00
2019-05-03T10:01:36.486Z,15.90
2019-05-03T10:16:51.850Z,14.87
2019-05-03T10:32:00.551Z,13.50
2019-05-03T10:47:08.452Z,14.98
2019-05-03T11:02:30.929Z,17.92
2019-05-03T11:17:38.398Z,15.23
2019-05-03T11:32:48.000Z,16.25
2019-05-03T11:47:55.849Z,14.98
2019-05-03T12:03:07.395Z,13.15
2019-05-03T12:18:16.241Z,7.72
2019-05-03T12:33:26.040Z,6.45
2019-05-03T12:48:32.603Z,6.60
2019-05-03T13:03:42.105Z,6.78
2019-05-03T13:18:49.420Z,9.10
2019-05-03T13:33:56.412Z,10.18
2019-05-03T13:49:05.381Z,13.60
2019-05-03T14:04:14.810Z,10.48
2019-05-03T14:19:25.941Z,9.08
2019-05-03T14:34:32.836Z,9.50
2019-05-03T14:49:39.788Z,10.32
2019-05-03T15:04:46.768Z,10.72
2019-05-03T15:19:54.742Z,11.33
2019-05-03T15:35:01.822Z,7.80
2019-05-03T15:50:09.244Z,7.53
2019-05-03T16:20:22.540Z,8.90
2019-05-03T16:35:30.483Z,7.70
2019-05-03T16:50:39.167Z,12.13
2019-05-03T17:05:56.478Z,13.75
2019-05-03T17:21:03.214Z,8.40
2019-05-03T17:36:10.057Z,10.35
2019-05-03T17:51:35.115Z,10.80
2019-05-03T18:06:45.261Z,10.80
2019-05-03T18:21:52.783Z,14.87
2019-05-03T18:36:59.741Z,9.68
2019-05-03T18:52:07.011Z,12.10
2019-05-03T19:07:18.358Z,8.85
2019-05-03T19:22:25.391Z,16.35
2019-05-03T19:37:32.328Z,11.78
2019-05-03T19:52:57.144Z,11.63
2019-05-03T20:08:12.907Z,18.52
2019-05-03T20:23:39.307Z,15.00
2019-05-03T20:38:48.269Z,16.85
2019-05-03T20:53:55.350Z,14.43
2019-05-03T21:09:04.623Z,18.17
2019-05-03T21:24:14.832Z,17.40
2019-05-03T21:39:21.917Z,17.77
2019-05-03T21:54:31.487Z,14.40
2019-05-03T22:09:41.307Z,14.68
2019-05-03T22:24:50.842Z,14.83
2019-05-03T22:39:58.944Z,23.60
2019-05-03T22:55:08.334Z,28.27
2019-05-03T23:10:17.494Z,19.55
2019-05-03T23:25:25.078Z,19.70
2019-05-03T23:40:32.101Z,17.05
2019-05-03T23:55:40.539Z,11.63
